Airfield :
LOGIN :

Register | Disclaimer

   EN    FR    IT 

 










Legend :    VFR   Marginal VFR   IFR   Intensive IFR   Very Intensive IFR
Visi :
Ceiling :
>= 8 km
>= 3000ft
5 to 8 km
1000 to 3000 ft
1500m to 5 km
500 to 1000 ft
800 to 1500m
200 to 500 ft
< 800m
< 200 ft
Symbols :   Thunderstorms  Fog  Heavy snow  Heavy precipitations  Wind > 20 kt
SIGMETs :     Misc.  Thunderstorms  Icing  Turbulence  Mountain Waves  Volcanic Ashes







- Airport Elevation : 3 ft
- IATA code : DHR


EHKD - Den Helder De Kooy

CURRENT METAR :
  • 180430Z AUTO 36005KT 310V040 9999 NCD 13/11 Q1023 BLU 35008KT 9999 SCT020

EXPIRED METARs :
  • 180357Z AUTO 01005KT 320V050 9999 FEW016 13/11 Q1023 BLU
  • 180347Z AUTO 36006KT 320V040 9999 BKN016 13/11 Q1023 WHT
  • 180325Z AUTO 01007KT 330V040 9999 FEW048 OVC060 13/11 Q1023 BLU
  • 180308Z AUTO 36006KT 330V040 9999 FEW015 OVC044 13/11 Q1023 BLU
  • 180255Z AUTO 36006KT 320V030 9999 SCT016 BKN020 OVC058 13/11 Q1023 WHT
  • 180244Z AUTO 36005KT 310V050 9999 FEW016 SCT020 OVC060 13/11 Q1023 WHT
  • 180225Z AUTO 36007KT 310V030 9999 OVC051 14/11 Q1023 BLU
  • 180155Z AUTO 36007KT 320V040 9999 FEW051 OVC073 14/11 Q1023 BLU

TAF TAF EHKD
Valid from the 17 at 17:00 until the 18 at 05:00 UTC


171644Z 1717/1805 31005KT 9999 FEW020
BECMG 1720/1722 35005KT SCT012 BKN015 OVC025
PROB30
TEMPO 1721/1723 4500 -RADZ BKN008
BECMG 1723/0801 36012KT FEW013 SCT018
No reported NOTAMs for that airfield.



MET'MAP, your aeronautical weather chart ! - Copyright ORBIFLY December 2007 - Disclaimer

ORBIFLY MET'MAP TEAM :

Programming & Development : Alexandra Zaïnal
Concept & Development : Baudouin d'Aumeries
Co-Development & Prog : Marc-Olivier Méhu
Technical & hardware support : Manuel Goepfert

Contact : metmap@orbifly.com




SOURCES & CREDITS :

   NOAA